createdAt,value
2018-08-12T00:00:21.777Z,21.28
2018-08-12T00:00:52.901Z,21.28
2018-08-12T00:01:24.072Z,21.26
2018-08-12T00:01:55.251Z,21.26
2018-08-12T00:02:26.410Z,21.33
2018-08-12T00:02:57.572Z,21.34
2018-08-12T00:03:28.696Z,21.33
2018-08-12T00:03:59.869Z,21.32
2018-08-12T00:04:31.080Z,21.32
2018-08-12T00:05:02.284Z,21.30
2018-08-12T00:05:33.502Z,21.31
2018-08-12T00:06:04.668Z,21.33
2018-08-12T00:06:35.888Z,21.32
2018-08-12T00:07:07.007Z,21.31
2018-08-12T00:07:38.129Z,21.29
2018-08-12T00:08:09.238Z,21.26
2018-08-12T00:08:40.459Z,21.25
2018-08-12T00:09:11.575Z,21.24
2018-08-12T00:09:42.679Z,21.24
2018-08-12T00:10:14.663Z,21.24
2018-08-12T00:10:45.793Z,21.22
2018-08-12T00:11:16.911Z,21.18
2018-08-12T00:11:48.126Z,21.13
2018-08-12T00:12:19.359Z,21.10
2018-08-12T00:12:50.536Z,21.10
2018-08-12T00:13:21.762Z,21.06
2018-08-12T00:13:52.879Z,21.02
2018-08-12T00:14:24.040Z,21.00
2018-08-12T00:14:55.212Z,21.01
2018-08-12T00:15:26.424Z,21.01
2018-08-12T00:15:57.539Z,21.01
2018-08-12T00:16:28.649Z,21.00
2018-08-12T00:16:59.759Z,21.00
2018-08-12T00:17:30.924Z,20.96
2018-08-12T00:18:02.148Z,20.97
2018-08-12T00:18:33.277Z,20.95
2018-08-12T00:19:04.389Z,20.92
2018-08-12T00:19:35.554Z,20.90
2018-08-12T00:20:06.759Z,20.88
2018-08-12T00:20:37.906Z,20.86
2018-08-12T00:21:09.126Z,20.85
2018-08-12T00:21:40.303Z,20.87
2018-08-12T00:22:11.414Z,20.87
2018-08-12T00:22:42.625Z,20.87
2018-08-12T00:23:13.738Z,20.88
2018-08-12T00:23:44.902Z,20.87
2018-08-12T00:24:16.012Z,20.86
2018-08-12T00:24:47.117Z,20.84
2018-08-12T00:25:18.232Z,20.84
2018-08-12T00:25:49.372Z,20.82
2018-08-12T00:26:20.547Z,20.78
2018-08-12T00:26:51.708Z,20.76
2018-08-12T00:27:22.872Z,20.76
2018-08-12T00:27:53.984Z,20.73
2018-08-12T00:28:25.148Z,20.68
2018-08-12T00:28:56.269Z,20.64
2018-08-12T00:29:27.375Z,20.62
2018-08-12T00:29:58.585Z,20.57
2018-08-12T00:30:29.751Z,20.56
2018-08-12T00:31:00.914Z,20.51
2018-08-12T00:31:32.141Z,20.48
2018-08-12T00:32:03.263Z,20.45
2018-08-12T00:32:34.435Z,20.41
2018-08-12T00:33:05.609Z,20.38
2018-08-12T00:33:36.783Z,20.37
2018-08-12T00:34:07.904Z,20.36
2018-08-12T00:34:39.066Z,20.34
2018-08-12T00:35:10.231Z,20.30
2018-08-12T00:35:41.455Z,20.28
2018-08-12T00:36:12.568Z,20.24
2018-08-12T00:36:43.681Z,20.22
2018-08-12T00:37:14.797Z,20.18
2018-08-12T00:37:45.903Z,20.15
2018-08-12T00:38:17.079Z,20.11
2018-08-12T00:38:48.256Z,20.05
2018-08-12T00:39:19.429Z,20.00
2018-08-12T00:39:50.551Z,19.95
2018-08-12T00:40:21.651Z,19.93
2018-08-12T00:40:52.807Z,19.89
2018-08-12T00:41:23.989Z,19.85
2018-08-12T00:41:55.208Z,19.81
2018-08-12T00:42:26.397Z,19.78
2018-08-12T00:42:57.522Z,19.74
2018-08-12T00:43:28.756Z,19.69
2018-08-12T00:43:59.878Z,19.64
2018-08-12T00:44:31.037Z,19.60
2018-08-12T00:45:02.224Z,19.57
2018-08-12T00:45:33.444Z,19.50
2018-08-12T00:46:04.616Z,19.48
2018-08-12T00:46:35.788Z,19.46
2018-08-12T00:47:06.912Z,19.46
2018-08-12T00:47:38.028Z,19.46
2018-08-12T00:48:09.204Z,19.45
2018-08-12T00:48:40.382Z,19.41
2018-08-12T00:49:11.555Z,19.40
2018-08-12T00:49:42.744Z,19.41
2018-08-12T00:50:13.860Z,19.40
2018-08-12T00:50:44.971Z,19.38
2018-08-12T00:51:16.176Z,19.38
2018-08-12T00:51:47.287Z,19.39
2018-08-12T00:52:18.504Z,19.40
2018-08-12T00:52:49.777Z,19.40
2018-08-12T00:53:20.948Z,19.40
2018-08-12T00:53:52.069Z,19.41
2018-08-12T00:54:23.293Z,19.44
2018-08-12T00:54:54.471Z,19.45
2018-08-12T00:55:25.616Z,19.45
2018-08-12T00:55:56.790Z,19.43
2018-08-12T00:56:27.972Z,19.39
2018-08-12T00:56:59.125Z,19.33
2018-08-12T00:57:30.292Z,19.28
2018-08-12T00:58:01.431Z,19.24
2018-08-12T00:58:32.579Z,19.24
2018-08-12T00:59:03.753Z,19.21
2018-08-12T00:59:34.916Z,19.20
2018-08-12T01:00:06.085Z,19.21
2018-08-12T01:00:37.195Z,19.18
2018-08-12T01:01:08.306Z,19.16
2018-08-12T01:01:39.424Z,19.13
2018-08-12T01:02:10.549Z,19.08
2018-08-12T01:02:41.712Z,19.05
2018-08-12T01:03:12.924Z,19.02
2018-08-12T01:03:44.038Z,19.00
2018-08-12T01:04:15.164Z,19.01
2018-08-12T01:04:46.275Z,19.02
2018-08-12T01:05:17.396Z,19.05
2018-08-12T01:05:48.649Z,19.05
2018-08-12T01:06:19.839Z,19.07
2018-08-12T01:06:51.074Z,19.08
2018-08-12T01:07:22.282Z,19.11
2018-08-12T01:07:53.451Z,19.14
2018-08-12T01:08:24.684Z,19.16
2018-08-12T01:08:55.852Z,19.19
2018-08-12T01:09:27.064Z,19.20
2018-08-12T01:09:58.290Z,19.20
2018-08-12T01:10:29.452Z,19.23
2018-08-12T01:11:00.620Z,19.25
2018-08-12T01:11:31.805Z,19.25
2018-08-12T01:12:02.923Z,19.28
2018-08-12T01:12:34.104Z,19.33
2018-08-12T01:13:05.212Z,19.33
2018-08-12T01:13:36.434Z,19.35
2018-08-12T01:14:07.611Z,19.34
2018-08-12T01:14:38.730Z,19.36
2018-08-12T01:15:09.907Z,19.35
2018-08-12T01:15:41.077Z,19.33
2018-08-12T01:16:12.207Z,19.33
2018-08-12T01:16:43.370Z,19.34
2018-08-12T01:17:14.491Z,19.33
2018-08-12T01:17:45.660Z,19.29
2018-08-12T01:18:16.795Z,19.24
2018-08-12T01:18:47.907Z,19.22
2018-08-12T01:19:19.055Z,19.17
2018-08-12T01:19:50.172Z,19.14
2018-08-12T01:20:21.298Z,19.09
2018-08-12T01:20:52.415Z,19.06
2018-08-12T01:21:23.589Z,19.03
2018-08-12T01:21:54.703Z,18.99
2018-08-12T01:22:25.862Z,19.02
2018-08-12T01:22:57.049Z,19.04
2018-08-12T01:23:28.162Z,19.03
2018-08-12T01:23:59.284Z,19.03
2018-08-12T01:24:30.431Z,19.06
2018-08-12T01:25:01.544Z,19.08
2018-08-12T01:25:32.719Z,19.10
2018-08-12T01:26:03.881Z,19.13
2018-08-12T01:26:35.047Z,19.14
2018-08-12T01:27:06.163Z,19.15
2018-08-12T01:27:37.275Z,19.17
2018-08-12T01:28:08.394Z,19.18
2018-08-12T01:28:39.502Z,19.17
2018-08-12T01:29:10.616Z,19.19
2018-08-12T01:29:41.771Z,19.20
2018-08-12T01:30:12.951Z,19.19
2018-08-12T01:30:44.074Z,19.20
2018-08-12T01:31:15.186Z,19.19
2018-08-12T01:31:46.307Z,19.19
2018-08-12T01:32:17.476Z,19.14
2018-08-12T01:32:48.604Z,19.15
2018-08-12T01:33:19.721Z,19.13
2018-08-12T01:33:50.854Z,19.11
2018-08-12T01:34:22.004Z,19.09
2018-08-12T01:34:53.168Z,19.06
2018-08-12T01:35:24.342Z,19.01
2018-08-12T01:35:55.575Z,19.00
2018-08-12T01:36:26.738Z,18.98
2018-08-12T01:36:57.900Z,18.98
2018-08-12T01:37:29.076Z,18.99
2018-08-12T01:38:00.258Z,18.99
2018-08-12T01:38:31.513Z,19.01
2018-08-12T01:39:02.699Z,19.01
2018-08-12T01:39:33.925Z,19.01
2018-08-12T01:40:05.101Z,19.01
2018-08-12T01:40:36.273Z,19.01
2018-08-12T01:41:07.441Z,19.00
2018-08-12T01:41:38.625Z,18.97
2018-08-12T01:42:09.790Z,18.97
2018-08-12T01:42:40.915Z,18.94
2018-08-12T01:43:12.140Z,18.93
2018-08-12T01:43:43.299Z,18.92
2018-08-12T01:44:14.471Z,18.92
2018-08-12T01:44:45.647Z,18.93
2018-08-12T01:45:16.810Z,18.90
2018-08-12T01:45:47.934Z,18.91
2018-08-12T01:46:19.190Z,18.90
2018-08-12T01:46:50.352Z,18.89
2018-08-12T01:47:21.531Z,18.88
2018-08-12T01:47:52.692Z,18.87
2018-08-12T01:48:23.872Z,18.87
2018-08-12T01:48:54.998Z,18.87
2018-08-12T01:49:26.210Z,18.87
2018-08-12T01:49:57.397Z,18.84
2018-08-12T01:50:28.507Z,18.82
2018-08-12T01:50:59.615Z,18.78
2018-08-12T01:51:30.884Z,18.76
2018-08-12T01:52:02.061Z,18.73
2018-08-12T01:52:33.175Z,18.71
2018-08-12T01:53:04.285Z,18.69
2018-08-12T01:53:35.383Z,18.68
2018-08-12T01:54:06.545Z,18.67
2018-08-12T01:54:37.736Z,18.64
2018-08-12T01:55:08.892Z,18.63
2018-08-12T01:55:40.047Z,18.64
2018-08-12T01:56:11.160Z,18.65
2018-08-12T01:56:42.377Z,18.64
2018-08-12T01:57:13.552Z,18.65
2018-08-12T01:57:44.683Z,18.64
2018-08-12T01:58:15.793Z,18.63
2018-08-12T01:58:46.964Z,18.63
2018-08-12T01:59:18.089Z,18.63
2018-08-12T01:59:49.198Z,18.62
2018-08-12T02:00:20.364Z,18.61
2018-08-12T02:00:51.579Z,18.68
2018-08-12T02:01:22.754Z,18.68
2018-08-12T02:01:53.934Z,18.67
2018-08-12T02:02:25.117Z,18.65
2018-08-12T02:02:56.282Z,18.66
2018-08-12T02:03:27.455Z,18.64
2018-08-12T02:03:58.628Z,18.62
2018-08-12T02:04:29.849Z,18.61
2018-08-12T02:05:00.971Z,18.62
2018-08-12T02:05:32.133Z,18.60
2018-08-12T02:06:03.287Z,18.58
2018-08-12T02:06:34.397Z,18.52
2018-08-12T02:07:05.507Z,18.47
2018-08-12T02:07:36.670Z,18.47
2018-08-12T02:08:07.780Z,18.47
2018-08-12T02:08:38.950Z,18.44
2018-08-12T02:09:10.118Z,18.44
2018-08-12T02:09:41.238Z,18.44
2018-08-12T02:10:12.351Z,18.45
2018-08-12T02:10:43.524Z,18.45
2018-08-12T02:11:14.683Z,18.43
2018-08-12T02:11:45.788Z,18.41
2018-08-12T02:12:16.958Z,18.40
2018-08-12T02:12:48.188Z,18.39
2018-08-12T02:13:19.368Z,18.40
2018-08-12T02:13:50.483Z,18.44
2018-08-12T02:14:21.644Z,18.46
2018-08-12T02:14:52.764Z,18.48
2018-08-12T02:15:23.872Z,18.49
2018-08-12T02:15:54.998Z,18.49
2018-08-12T02:16:26.139Z,18.50
2018-08-12T02:16:57.414Z,18.49
2018-08-12T02:17:28.592Z,18.51
2018-08-12T02:17:59.800Z,18.49
2018-08-12T02:18:30.963Z,18.50
2018-08-12T02:19:02.133Z,18.50
2018-08-12T02:19:33.313Z,18.51
2018-08-12T02:20:04.474Z,18.49
2018-08-12T02:20:35.584Z,18.45
2018-08-12T02:21:06.695Z,18.43
2018-08-12T02:21:37.912Z,18.41
2018-08-12T02:22:09.083Z,18.40
2018-08-12T02:22:40.245Z,18.37
2018-08-12T02:23:11.476Z,18.36
2018-08-12T02:23:42.660Z,18.31
2018-08-12T02:24:13.793Z,18.30
2018-08-12T02:24:44.957Z,18.26
2018-08-12T02:25:16.144Z,18.25
2018-08-12T02:25:47.309Z,18.25
2018-08-12T02:26:18.423Z,18.24
2018-08-12T02:26:49.589Z,18.23
2018-08-12T02:27:20.751Z,18.22
2018-08-12T02:27:51.973Z,18.21
2018-08-12T02:28:23.204Z,18.22
2018-08-12T02:28:54.325Z,18.24
2018-08-12T02:29:25.486Z,18.24
2018-08-12T02:29:56.616Z,18.25
2018-08-12T02:30:27.848Z,18.23
2018-08-12T02:30:59.036Z,18.21
2018-08-12T02:31:30.157Z,18.20
2018-08-12T02:32:01.311Z,18.20
2018-08-12T02:32:32.512Z,18.23
2018-08-12T02:33:03.627Z,18.26
2018-08-12T02:33:34.730Z,18.30
2018-08-12T02:34:05.852Z,18.31
2018-08-12T02:34:37.084Z,18.31
2018-08-12T02:35:08.308Z,18.30
2018-08-12T02:35:39.537Z,18.30
2018-08-12T02:36:10.778Z,18.30
2018-08-12T02:36:41.949Z,18.29
2018-08-12T02:37:13.054Z,18.28
2018-08-12T02:37:44.262Z,18.24
2018-08-12T02:38:15.430Z,18.18
2018-08-12T02:38:46.600Z,18.16
2018-08-12T02:39:17.767Z,17.96
2018-08-12T02:39:48.936Z,18.08
2018-08-12T02:40:20.141Z,18.04
2018-08-12T02:40:51.255Z,18.02
2018-08-12T02:41:22.414Z,17.98
2018-08-12T02:41:53.592Z,17.97
2018-08-12T02:42:24.764Z,17.98
2018-08-12T02:42:55.941Z,17.97
2018-08-12T02:43:27.161Z,17.97
2018-08-12T02:43:58.332Z,17.94
2018-08-12T02:44:29.566Z,17.92
2018-08-12T02:45:00.795Z,17.91
2018-08-12T02:45:32.006Z,17.89
2018-08-12T02:46:03.181Z,17.91
2018-08-12T02:46:34.337Z,17.91
2018-08-12T02:47:05.508Z,17.90
2018-08-12T02:47:36.611Z,17.94
2018-08-12T02:48:07.783Z,17.94
2018-08-12T02:48:38.953Z,17.93
2018-08-12T02:49:10.124Z,17.94
2018-08-12T02:49:41.281Z,17.95
2018-08-12T02:50:12.518Z,17.95
2018-08-12T02:50:43.705Z,17.95
2018-08-12T02:51:14.826Z,17.94
2018-08-12T02:51:45.932Z,17.95
2018-08-12T02:52:17.035Z,17.92
2018-08-12T02:52:48.142Z,17.91
2018-08-12T02:53:19.400Z,17.95
2018-08-12T02:53:50.515Z,17.99
2018-08-12T02:54:21.620Z,18.01
2018-08-12T02:54:52.731Z,18.03
2018-08-12T02:55:23.953Z,18.03
2018-08-12T02:55:55.194Z,18.03
2018-08-12T02:56:26.434Z,18.02
2018-08-12T02:56:57.549Z,18.01
2018-08-12T02:57:28.696Z,17.98
2018-08-12T02:57:59.792Z,17.98
2018-08-12T02:58:31.009Z,17.96
2018-08-12T02:59:02.167Z,17.94
2018-08-12T02:59:33.341Z,17.92
2018-08-12T03:00:04.504Z,17.92
2018-08-12T03:00:35.664Z,17.92
2018-08-12T03:01:06.881Z,17.92
2018-08-12T03:01:38.059Z,17.92
2018-08-12T03:02:09.167Z,17.89
2018-08-12T03:02:40.326Z,17.89
2018-08-12T03:03:11.447Z,17.87
2018-08-12T03:03:42.551Z,17.91
2018-08-12T03:04:13.716Z,17.89
2018-08-12T03:04:44.858Z,17.87
2018-08-12T03:05:15.971Z,17.87
2018-08-12T03:05:47.132Z,17.85
2018-08-12T03:06:18.254Z,17.84
2018-08-12T03:06:49.361Z,17.82
2018-08-12T03:07:20.528Z,17.80
2018-08-12T03:07:51.639Z,17.81
2018-08-12T03:08:22.740Z,17.79
2018-08-12T03:08:53.844Z,17.78
2018-08-12T03:09:25.019Z,17.79
2018-08-12T03:09:56.227Z,17.80
2018-08-12T03:10:27.448Z,17.81
2018-08-12T03:10:58.555Z,17.85
2018-08-12T03:11:29.687Z,17.83
2018-08-12T03:12:00.792Z,17.86
2018-08-12T03:12:31.903Z,17.86
2018-08-12T03:13:03.005Z,17.90
2018-08-12T03:13:34.115Z,17.91
2018-08-12T03:14:05.276Z,17.91
2018-08-12T03:14:36.392Z,17.92
2018-08-12T03:15:07.499Z,17.94
2018-08-12T03:15:38.698Z,17.92
2018-08-12T03:16:09.808Z,17.92
2018-08-12T03:16:40.903Z,17.92
2018-08-12T03:17:12.068Z,17.77
2018-08-12T03:17:43.168Z,17.92
2018-08-12T03:18:14.332Z,17.92
2018-08-12T03:18:45.446Z,17.91
2018-08-12T03:19:16.652Z,17.92
2018-08-12T03:19:47.765Z,17.91
2018-08-12T03:20:18.936Z,17.90
2018-08-12T03:20:50.036Z,17.88
2018-08-12T03:21:21.260Z,17.84
2018-08-12T03:21:52.372Z,17.83
2018-08-12T03:22:23.495Z,17.80
2018-08-12T03:22:54.726Z,17.79
2018-08-12T03:23:25.888Z,17.80
2018-08-12T03:23:57.072Z,17.65
2018-08-12T03:24:28.225Z,17.82
2018-08-12T03:24:59.335Z,17.86
2018-08-12T03:25:30.495Z,17.87
2018-08-12T03:26:01.654Z,17.90
2018-08-12T03:26:32.771Z,17.91
2018-08-12T03:27:03.956Z,17.94
2018-08-12T03:27:35.068Z,17.93
2018-08-12T03:28:06.179Z,17.93
2018-08-12T03:28:37.353Z,17.91
2018-08-12T03:29:08.510Z,17.92
2018-08-12T03:29:39.625Z,17.93
2018-08-12T03:30:10.934Z,17.95
2018-08-12T03:30:41.925Z,17.94
2018-08-12T03:31:13.085Z,17.93
2018-08-12T03:31:44.269Z,17.94
2018-08-12T03:32:15.421Z,17.94
2018-08-12T03:32:46.546Z,17.92
2018-08-12T03:33:17.656Z,17.92
2018-08-12T03:33:48.763Z,17.93
2018-08-12T03:34:19.988Z,17.93
2018-08-12T03:34:51.091Z,17.91
2018-08-12T03:35:22.196Z,17.88
2018-08-12T03:35:53.419Z,17.88
2018-08-12T03:36:24.588Z,17.88
2018-08-12T03:36:55.743Z,17.90
2018-08-12T03:37:26.859Z,17.94
2018-08-12T03:37:58.017Z,18.01
2018-08-12T03:38:29.133Z,18.08
2018-08-12T03:39:00.298Z,18.15
2018-08-12T03:39:31.522Z,18.20
2018-08-12T03:40:02.643Z,18.27
2018-08-12T03:40:33.744Z,18.32
2018-08-12T03:41:04.868Z,18.40
2018-08-12T03:41:35.976Z,18.52
2018-08-12T03:42:07.147Z,18.60
2018-08-12T03:42:38.326Z,18.64
2018-08-12T03:43:09.545Z,18.70
2018-08-12T03:43:40.661Z,18.80
2018-08-12T03:44:11.773Z,18.88
2018-08-12T03:44:42.991Z,18.94
2018-08-12T03:45:14.112Z,18.96
2018-08-12T03:45:45.332Z,19.01
2018-08-12T03:46:16.447Z,19.09
2018-08-12T03:46:47.668Z,19.19
2018-08-12T03:47:18.896Z,19.28
2018-08-12T03:47:50.065Z,19.20
2018-08-12T03:48:21.179Z,19.41
2018-08-12T03:48:52.323Z,19.45
2018-08-12T03:49:23.416Z,19.50
2018-08-12T03:49:54.680Z,19.59
2018-08-12T03:50:25.848Z,19.68
2018-08-12T03:50:57.118Z,19.81
2018-08-12T03:51:28.235Z,19.93
2018-08-12T03:51:59.403Z,20.04
2018-08-12T03:52:30.584Z,20.08
2018-08-12T03:53:01.775Z,20.11
2018-08-12T03:53:32.881Z,20.19
2018-08-12T03:54:03.995Z,20.29
2018-08-12T03:54:35.109Z,20.38
2018-08-12T03:55:06.231Z,20.48
2018-08-12T03:55:37.503Z,20.58
2018-08-12T03:56:08.620Z,20.65
2018-08-12T03:56:39.736Z,20.74
2018-08-12T03:57:10.966Z,20.80
2018-08-12T03:57:42.146Z,20.91
2018-08-12T03:58:13.330Z,21.01
2018-08-12T03:58:44.507Z,21.05
2018-08-12T03:59:15.615Z,21.16
2018-08-12T03:59:46.790Z,21.28
2018-08-12T04:00:17.957Z,21.40
2018-08-12T04:00:49.177Z,21.42
2018-08-12T04:01:20.299Z,21.52
2018-08-12T04:01:51.467Z,21.64
2018-08-12T04:02:22.661Z,21.79
2018-08-12T04:02:53.787Z,21.91
2018-08-12T04:03:24.957Z,22.03
2018-08-12T04:03:56.184Z,22.13
2018-08-12T04:04:27.422Z,22.16
2018-08-12T04:04:58.606Z,22.11
2018-08-12T04:05:29.725Z,22.10
2018-08-12T04:06:00.881Z,22.18
2018-08-12T04:06:32.055Z,22.19
2018-08-12T04:07:03.180Z,22.17
2018-08-12T04:07:34.344Z,22.12
2018-08-12T04:08:05.510Z,22.16
2018-08-12T04:08:36.640Z,22.19
2018-08-12T04:09:07.821Z,22.23
2018-08-12T04:09:38.939Z,22.35
2018-08-12T04:10:10.116Z,22.46
2018-08-12T04:10:41.224Z,22.53
2018-08-12T04:11:12.442Z,22.53
2018-08-12T04:11:43.623Z,22.48
2018-08-12T04:12:14.799Z,22.44
2018-08-12T04:12:46.027Z,22.36
2018-08-12T04:13:17.192Z,22.16
2018-08-12T04:13:48.300Z,22.00
2018-08-12T04:14:19.457Z,21.84
2018-08-12T04:14:50.632Z,21.71
2018-08-12T04:15:21.754Z,21.65
2018-08-12T04:15:52.921Z,21.64
2018-08-12T04:16:24.094Z,21.69
2018-08-12T04:16:55.333Z,21.84
2018-08-12T04:17:26.450Z,22.03
2018-08-12T04:17:57.599Z,22.17
2018-08-12T04:18:28.709Z,22.40
2018-08-12T04:18:59.905Z,22.52
2018-08-12T04:19:31.084Z,22.69
2018-08-12T04:20:02.362Z,22.88
2018-08-12T04:20:33.541Z,22.71
2018-08-12T04:21:04.788Z,22.75
2018-08-12T04:21:35.964Z,22.73
2018-08-12T04:22:07.070Z,22.58
2018-08-12T04:22:38.277Z,22.45
2018-08-12T04:23:09.457Z,22.40
2018-08-12T04:23:40.620Z,22.32
2018-08-12T04:24:11.732Z,22.27
2018-08-12T04:24:42.879Z,22.24
2018-08-12T04:25:14.048Z,22.23
2018-08-12T04:25:45.167Z,22.31
2018-08-12T04:26:16.283Z,22.42
2018-08-12T04:27:18.372Z,22.87
2018-08-12T04:27:49.544Z,23.14
2018-08-12T04:28:20.779Z,23.45
2018-08-12T04:28:51.976Z,23.62
2018-08-12T04:29:23.145Z,23.89
2018-08-12T04:29:54.336Z,24.13
2018-08-12T04:30:25.525Z,24.27
2018-08-12T04:30:56.710Z,24.39
2018-08-12T04:31:27.872Z,24.60
2018-08-12T04:31:58.995Z,24.79
2018-08-12T04:32:30.160Z,24.79
2018-08-12T04:33:01.328Z,24.92
2018-08-12T04:33:32.453Z,24.80
2018-08-12T04:34:03.559Z,25.06
2018-08-12T04:34:34.667Z,25.19
2018-08-12T04:35:05.880Z,25.32
2018-08-12T04:35:37.049Z,25.43
2018-08-12T04:36:08.151Z,25.45
2018-08-12T04:36:39.310Z,25.59
2018-08-12T04:37:10.536Z,25.78
2018-08-12T04:37:41.718Z,25.91
2018-08-12T04:38:12.879Z,25.93
2018-08-12T04:38:44.040Z,25.94
2018-08-12T04:39:15.153Z,26.20
2018-08-12T04:39:46.320Z,26.33
2018-08-12T04:40:17.500Z,26.50
2018-08-12T04:40:48.611Z,26.35
2018-08-12T04:41:19.777Z,26.34
2018-08-12T04:41:50.957Z,26.46
2018-08-12T04:42:22.117Z,26.57
2018-08-12T04:42:53.295Z,26.66
2018-08-12T04:43:24.477Z,26.83
2018-08-12T04:43:55.648Z,27.01
2018-08-12T04:44:26.874Z,27.19
2018-08-12T04:44:57.991Z,27.35
2018-08-12T04:45:29.151Z,27.33
2018-08-12T04:46:00.361Z,27.36
2018-08-12T04:46:31.484Z,27.32
2018-08-12T04:47:02.657Z,27.38
2018-08-12T04:47:33.836Z,27.27
2018-08-12T04:48:04.960Z,27.24
2018-08-12T04:48:36.133Z,27.20
2018-08-12T04:49:07.333Z,27.36
2018-08-12T04:49:38.512Z,27.55
2018-08-12T04:50:09.643Z,27.76
2018-08-12T04:50:40.759Z,27.97
2018-08-12T04:51:11.929Z,28.07
2018-08-12T04:51:43.105Z,28.09
2018-08-12T04:52:14.290Z,28.30
2018-08-12T04:52:45.464Z,28.29
2018-08-12T04:53:16.684Z,28.34
2018-08-12T04:53:47.921Z,28.20
2018-08-12T04:54:19.035Z,28.20
2018-08-12T04:54:50.218Z,28.07
2018-08-12T04:55:21.389Z,28.05
2018-08-12T04:55:52.516Z,27.91
2018-08-12T04:56:23.696Z,27.98
2018-08-12T04:56:54.807Z,28.14
2018-08-12T04:57:25.927Z,28.25
2018-08-12T04:57:57.104Z,28.39
2018-08-12T04:58:28.286Z,28.45
2018-08-12T04:58:59.574Z,28.59
2018-08-12T04:59:30.748Z,28.71
2018-08-12T05:00:01.935Z,28.81
2018-08-12T05:00:33.104Z,28.93
2018-08-12T05:01:04.342Z,28.94
2018-08-12T05:01:35.470Z,29.18
2018-08-12T05:02:06.592Z,29.29
2018-08-12T05:02:37.763Z,29.38
2018-08-12T05:03:09.011Z,29.33
2018-08-12T05:03:40.132Z,29.22
2018-08-12T05:04:11.351Z,29.17
2018-08-12T05:04:42.532Z,29.25
2018-08-12T05:05:13.659Z,29.22
2018-08-12T05:05:44.787Z,29.29
2018-08-12T05:06:15.964Z,29.38
2018-08-12T05:06:47.148Z,29.33
2018-08-12T05:07:18.267Z,29.48
2018-08-12T05:07:49.388Z,29.59
2018-08-12T05:08:20.575Z,29.55
2018-08-12T05:08:51.697Z,29.55
2018-08-12T05:09:22.912Z,29.69
2018-08-12T05:09:54.136Z,29.85
2018-08-12T05:10:25.256Z,29.89
2018-08-12T05:10:56.436Z,29.71
2018-08-12T05:11:27.599Z,29.73
2018-08-12T05:11:58.715Z,29.75
2018-08-12T05:12:29.840Z,29.87
2018-08-12T05:13:01.005Z,29.94
2018-08-12T05:13:32.119Z,30.10
2018-08-12T05:14:03.288Z,30.20
2018-08-12T05:14:34.440Z,30.25
2018-08-12T05:15:05.620Z,30.25
2018-08-12T05:15:36.776Z,30.36
2018-08-12T05:16:07.888Z,30.43
2018-08-12T05:16:39.001Z,30.70
2018-08-12T05:17:10.113Z,30.78
2018-08-12T05:17:41.259Z,30.79
2018-08-12T05:18:12.425Z,30.64
2018-08-12T05:18:43.588Z,30.52
2018-08-12T05:19:14.703Z,30.45
2018-08-12T05:19:45.812Z,30.22
2018-08-12T05:20:16.925Z,30.13
2018-08-12T05:20:48.036Z,29.99
2018-08-12T05:21:19.200Z,29.73
2018-08-12T05:21:50.312Z,29.85
2018-08-12T05:22:21.528Z,29.74
2018-08-12T05:22:52.743Z,29.86
2018-08-12T05:23:23.857Z,29.86
2018-08-12T05:23:55.014Z,30.00
2018-08-12T05:24:26.188Z,30.11
2018-08-12T05:24:57.318Z,30.15
2018-08-12T05:25:28.504Z,30.11
2018-08-12T05:25:59.770Z,30.09
2018-08-12T05:26:30.960Z,30.11
2018-08-12T05:27:02.279Z,30.09
2018-08-12T05:27:33.475Z,30.10
2018-08-12T05:28:04.688Z,30.29
2018-08-12T05:28:35.890Z,30.24
2018-08-12T05:29:07.080Z,30.32
2018-08-12T05:29:38.304Z,30.36
2018-08-12T05:30:09.449Z,30.32
2018-08-12T05:30:40.740Z,30.29
2018-08-12T05:31:12.069Z,30.28
2018-08-12T05:31:43.248Z,30.15
2018-08-12T05:32:14.992Z,30.16
2018-08-12T05:32:46.200Z,30.18
2018-08-12T05:33:18.409Z,30.20
2018-08-12T05:33:49.613Z,30.19
2018-08-12T05:34:20.782Z,30.35
2018-08-12T05:34:52.020Z,30.23
2018-08-12T05:35:23.166Z,30.39
2018-08-12T05:35:54.351Z,30.42
2018-08-12T05:36:25.482Z,30.55
2018-08-12T05:36:56.644Z,30.48
2018-08-12T05:37:27.908Z,30.20
2018-08-12T05:37:59.136Z,29.91
2018-08-12T05:38:30.259Z,29.74
2018-08-12T05:39:01.373Z,29.46
2018-08-12T05:39:32.503Z,29.40
2018-08-12T05:40:03.614Z,29.38
2018-08-12T05:40:34.785Z,29.28
2018-08-12T05:41:05.891Z,28.95
2018-08-12T05:41:37.114Z,28.84
2018-08-12T05:42:08.244Z,28.73
2018-08-12T05:42:39.391Z,28.42
2018-08-12T05:43:10.572Z,28.25
2018-08-12T05:43:41.687Z,28.31
2018-08-12T05:44:12.890Z,28.40
2018-08-12T05:44:44.024Z,28.36
2018-08-12T05:45:15.199Z,28.24
2018-08-12T05:45:46.385Z,28.11
2018-08-12T05:46:17.552Z,28.05
2018-08-12T05:46:48.669Z,27.91
2018-08-12T05:47:19.793Z,27.94
2018-08-12T05:47:50.963Z,27.82
2018-08-12T05:48:22.092Z,27.60
2018-08-12T05:48:53.203Z,27.33
2018-08-12T05:49:24.311Z,27.01
2018-08-12T05:49:55.428Z,27.13
2018-08-12T05:50:26.595Z,27.10
2018-08-12T05:50:57.752Z,27.12
2018-08-12T05:51:28.919Z,27.12
2018-08-12T05:52:00.061Z,27.11
2018-08-12T05:52:31.952Z,27.08
2018-08-12T05:53:03.216Z,26.93
2018-08-12T05:53:34.466Z,26.80
2018-08-12T05:54:05.595Z,26.66
2018-08-12T05:54:36.721Z,26.56
2018-08-12T05:55:07.849Z,26.52
2018-08-12T05:55:38.964Z,26.40
2018-08-12T05:56:10.147Z,26.20
2018-08-12T05:56:41.321Z,26.09
2018-08-12T05:57:12.482Z,26.04
2018-08-12T05:57:43.669Z,26.07
2018-08-12T05:58:14.872Z,26.09
2018-08-12T05:58:46.023Z,26.18
2018-08-12T05:59:17.149Z,26.14
2018-08-12T05:59:48.321Z,26.06
2018-08-12T06:00:19.436Z,26.06
2018-08-12T06:00:50.676Z,25.99
2018-08-12T06:01:21.857Z,26.05
2018-08-12T06:01:52.978Z,26.09
2018-08-12T06:02:24.155Z,26.04
2018-08-12T06:02:55.424Z,25.94
2018-08-12T06:03:26.589Z,25.85
2018-08-12T06:03:57.838Z,25.78
2018-08-12T06:04:28.971Z,25.76
2018-08-12T06:05:00.143Z,25.82
2018-08-12T06:05:31.298Z,25.85
2018-08-12T06:06:02.429Z,25.87
2018-08-12T06:06:33.599Z,25.91
2018-08-12T06:07:04.719Z,25.97
2018-08-12T06:07:35.848Z,26.07
2018-08-12T06:08:07.025Z,26.06
2018-08-12T06:08:38.232Z,26.10
2018-08-12T06:09:09.537Z,26.07
2018-08-12T06:09:40.724Z,26.10
2018-08-12T06:10:11.848Z,26.08
2018-08-12T06:10:43.077Z,26.10
2018-08-12T06:11:14.206Z,26.11
2018-08-12T06:11:45.437Z,26.22
2018-08-12T06:12:16.678Z,26.29
2018-08-12T06:12:47.887Z,26.38
2018-08-12T06:13:19.004Z,26.46
2018-08-12T06:13:50.192Z,26.49
2018-08-12T06:14:21.365Z,26.41
2018-08-12T06:14:52.519Z,26.33
2018-08-12T06:15:23.642Z,26.35
2018-08-12T06:15:54.879Z,26.34
2018-08-12T06:16:26.078Z,26.37
2018-08-12T06:16:57.318Z,26.39
2018-08-12T06:17:28.453Z,26.41
2018-08-12T06:17:59.649Z,26.43
2018-08-12T06:18:30.770Z,26.33
2018-08-12T06:19:01.950Z,26.28
2018-08-12T06:19:33.104Z,26.27
2018-08-12T06:20:04.249Z,26.18
2018-08-12T06:20:35.370Z,26.20
2018-08-12T06:21:06.495Z,26.19
2018-08-12T06:21:37.625Z,26.13
2018-08-12T06:22:08.815Z,26.07
2018-08-12T06:22:40.007Z,25.97
2018-08-12T06:23:11.188Z,25.98
2018-08-12T06:23:42.316Z,26.01
2018-08-12T06:24:13.550Z,26.04
2018-08-12T06:24:44.777Z,26.03
2018-08-12T06:25:15.976Z,25.89
2018-08-12T06:25:47.176Z,25.76
2018-08-12T06:26:18.438Z,25.77
2018-08-12T06:26:49.568Z,25.82
2018-08-12T06:27:20.692Z,25.85
2018-08-12T06:27:51.873Z,25.92
2018-08-12T06:28:23.023Z,25.88
2018-08-12T06:28:54.159Z,25.97
2018-08-12T06:29:25.280Z,26.04
2018-08-12T06:29:56.453Z,26.14
2018-08-12T06:30:27.570Z,26.16
2018-08-12T06:30:58.762Z,26.13
2018-08-12T06:31:29.986Z,26.13
2018-08-12T06:32:01.148Z,26.14
2018-08-12T06:32:32.314Z,26.18
2018-08-12T06:33:03.432Z,26.27
2018-08-12T06:33:34.612Z,26.30
2018-08-12T06:34:05.739Z,26.35
2018-08-12T06:34:36.913Z,26.44
2018-08-12T06:35:08.104Z,26.48
2018-08-12T06:35:39.282Z,26.42
2018-08-12T06:36:10.464Z,26.44
2018-08-12T06:36:41.608Z,26.45
2018-08-12T06:37:12.843Z,26.49
2018-08-12T06:37:44.057Z,26.43
2018-08-12T06:38:15.252Z,26.37
2018-08-12T06:38:46.480Z,26.26
2018-08-12T06:39:17.761Z,25.80
2018-08-12T06:39:48.966Z,26.01
2018-08-12T06:40:20.081Z,26.07
2018-08-12T06:40:51.247Z,26.10
2018-08-12T06:41:22.369Z,26.14
2018-08-12T06:41:53.488Z,26.14